Time;durP1;ratioP1;P1;durP2;ratioP2;P2;SDS_P1;SDS_P2;PMS_P1;PMS_P2;Temp;Humidity;BMP_temperature;BMP_pressure;BME280_temperature;BME280_humidity;BME280_pressure;Samples;Min_cycle;Max_cycle;Signal;HPM_P1;HPM_P2
2021/05/07 00:01:10;;;;;;;4.60;2.13;;;;;;;;;;5141131;27;20450;-71
2021/05/07 00:03:41;;;;;;;3.33;2.13;;;;;;;;;;5140474;27;20456;-72
2021/05/07 00:06:13;;;;;;;3.47;1.90;;;;;;;;;;5140637;27;20485;-71
2021/05/07 00:08:43;;;;;;;3.00;1.80;;;;;;;;;;5139558;27;20458;-71
2021/05/07 00:11:14;;;;;;;5.70;2.20;;;;;;;;;;5140271;27;20720;-70
2021/05/07 00:13:43;;;;;;;4.67;2.47;;;;;;;;;;5139994;27;20731;-71
2021/05/07 00:16:12;;;;;;;3.97;1.63;;;;;;;;;;5139930;27;20538;-71
2021/05/07 00:18:47;;;;;;;5.53;2.00;;;;;;;;;;5140021;27;20739;-69
2021/05/07 00:21:18;;;;;;;2.93;1.67;;;;;;;;;;5122637;27;20443;-71
2021/05/07 00:23:45;;;;;;;6.20;1.57;;;;;;;;;;5131042;27;20458;-71
2021/05/07 00:26:14;;;;;;;3.60;1.73;;;;;;;;;;5124262;27;20480;-71
2021/05/07 00:28:42;;;;;;;5.17;1.77;;;;;;;;;;5121666;27;20498;-71
2021/05/07 00:31:09;;;;;;;5.73;1.63;;;;;;;;;;5139978;27;20469;-71
2021/05/07 00:33:42;;;;;;;5.53;2.07;;;;;;;;;;5140372;27;20503;-71
2021/05/07 00:36:17;;;;;;;3.47;1.50;;;;;;;;;;5126681;27;20531;-71
2021/05/07 00:38:48;;;;;;;3.87;1.63;;;;;;;;;;5119898;27;20863;-71
2021/05/07 00:41:16;;;;;;;3.40;1.63;;;;;;;;;;5133025;27;20462;-71
2021/05/07 00:43:45;;;;;;;5.63;1.67;;;;;;;;;;5139446;27;20554;-71
2021/05/07 00:46:15;;;;;;;5.67;1.70;;;;;;;;;;5139492;27;20482;-71
2021/05/07 00:48:44;;;;;;;4.03;1.97;;;;;;;;;;5139095;27;20458;-72
2021/05/07 00:51:12;;;;;;;3.03;1.50;;;;;;;;;;5139875;27;20561;-71
2021/05/07 00:53:40;;;;;;;3.70;1.60;;;;;;;;;;5139228;27;20881;-71
2021/05/07 00:56:09;;;;;;;3.33;1.90;;;;;;;;;;5139181;27;20461;-71
2021/05/07 00:58:36;;;;;;;6.57;1.80;;;;;;;;;;5137071;27;20463;-71
2021/05/07 01:01:03;;;;;;;2.80;1.40;;;;;;;;;;5139117;27;20894;-71
2021/05/07 01:03:31;;;;;;;3.93;1.43;;;;;;;;;;5138717;27;20804;-71
2021/05/07 01:05:58;;;;;;;4.23;1.40;;;;;;;;;;5139305;27;20493;-71
2021/05/07 01:08:26;;;;;;;4.50;1.47;;;;;;;;;;5139359;27;20454;-71
2021/05/07 01:10:53;;;;;;;5.60;1.73;;;;;;;;;;5129242;27;20522;-71
2021/05/07 01:13:22;;;;;;;4.30;1.80;;;;;;;;;;5138520;27;20442;-71
2021/05/07 01:15:49;;;;;;;4.77;2.00;;;;;;;;;;5138820;27;20450;-71
2021/05/07 01:18:16;;;;;;;2.67;1.80;;;;;;;;;;5138878;27;20455;-70
2021/05/07 01:20:48;;;;;;;5.00;1.97;;;;;;;;;;5138883;27;20546;-71
2021/05/07 01:23:15;;;;;;;3.83;1.87;;;;;;;;;;5139404;27;20446;-72
2021/05/07 01:25:43;;;;;;;4.80;1.93;;;;;;;;;;5139597;27;20485;-72
2021/05/07 01:28:12;;;;;;;3.90;1.60;;;;;;;;;;5139279;27;20465;-71
2021/05/07 01:30:41;;;;;;;8.70;1.73;;;;;;;;;;5139226;27;20458;-71
2021/05/07 01:33:10;;;;;;;4.10;1.50;;;;;;;;;;5120265;27;20771;-71
2021/05/07 01:35:38;;;;;;;4.30;1.83;;;;;;;;;;5119005;27;20459;-71
2021/05/07 01:38:07;;;;;;;11.43;1.97;;;;;;;;;;5118954;27;20851;-71
2021/05/07 01:40:36;;;;;;;6.20;2.07;;;;;;;;;;5118680;27;20506;-71
2021/05/07 01:43:04;;;;;;;3.93;2.03;;;;;;;;;;5119156;28;20459;-71
2021/05/07 01:45:32;;;;;;;4.47;1.77;;;;;;;;;;5118518;28;20937;-70
2021/05/07 01:47:59;;;;;;;7.30;1.70;;;;;;;;;;5118581;27;21076;-71
2021/05/07 01:50:29;;;;;;;7.43;1.87;;;;;;;;;;5118270;27;20458;-71
2021/05/07 01:52:56;;;;;;;5.07;2.03;;;;;;;;;;5122401;27;20465;-74
2021/05/07 01:55:26;;;;;;;4.90;1.77;;;;;;;;;;5117849;28;20510;-71
2021/05/07 01:57:57;;;;;;;4.40;2.30;;;;;;;;;;5119072;27;20616;-71
2021/05/07 02:00:25;;;;;;;4.20;2.17;;;;;;;;;;5129101;27;20447;-71
2021/05/07 02:02:54;;;;;;;3.53;2.00;;;;;;;;;;5130963;27;20923;-71
2021/05/07 02:05:26;;;;;;;6.13;2.13;;;;;;;;;;5132742;27;20565;-72
2021/05/07 02:07:55;;;;;;;8.40;2.90;;;;;;;;;;5122105;27;20449;-70
2021/05/07 02:10:23;;;;;;;4.57;2.17;;;;;;;;;;5121453;27;20479;-71
2021/05/07 02:12:56;;;;;;;4.37;1.90;;;;;;;;;;5117943;27;20563;-71
2021/05/07 02:15:24;;;;;;;4.47;2.10;;;;;;;;;;5118050;28;20546;-71
2021/05/07 02:17:53;;;;;;;4.40;2.83;;;;;;;;;;5117934;27;20466;-71
2021/05/07 02:20:23;;;;;;;4.83;2.33;;;;;;;;;;5133866;27;20455;-71
2021/05/07 02:22:52;;;;;;;4.43;1.80;;;;;;;;;;5116442;28;20459;-71
2021/05/07 02:25:20;;;;;;;5.20;2.23;;;;;;;;;;5116665;28;20479;-70
2021/05/07 02:27:48;;;;;;;3.30;1.67;;;;;;;;;;5117584;28;20473;-70
2021/05/07 02:30:21;;;;;;;5.40;2.10;;;;;;;;;;5117202;28;20455;-70
2021/05/07 02:32:49;;;;;;;2.70;1.83;;;;;;;;;;5117226;28;20738;-70
2021/05/07 02:35:23;;;;;;;4.40;1.73;;;;;;;;;;5116470;28;20467;-70
2021/05/07 02:37:51;;;;;;;3.30;2.13;;;;;;;;;;5118177;28;20459;-70
2021/05/07 02:40:18;;;;;;;3.13;1.50;;;;;;;;;;5117045;28;21103;-71
2021/05/07 02:42:46;;;;;;;2.73;1.53;;;;;;;;;;5115697;28;20875;-72
2021/05/07 02:45:13;;;;;;;3.50;1.93;;;;;;;;;;5124157;27;20814;-71
2021/05/07 02:47:43;;;;;;;9.70;2.30;;;;;;;;;;5136980;27;20514;-71
2021/05/07 02:50:16;;;;;;;5.37;2.30;;;;;;;;;;5137295;27;20438;-71
2021/05/07 02:52:46;;;;;;;9.23;2.17;;;;;;;;;;5136994;27;20461;-70
2021/05/07 02:55:20;;;;;;;5.83;1.63;;;;;;;;;;5137446;27;20481;-71
2021/05/07 02:57:47;;;;;;;6.97;2.03;;;;;;;;;;5138013;27;20464;-71
2021/05/07 03:00:16;;;;;;;7.03;2.27;;;;;;;;;;5137643;27;20519;-70
2021/05/07 03:02:45;;;;;;;7.00;2.03;;;;;;;;;;5137641;27;20554;-70
2021/05/07 03:05:16;;;;;;;4.73;2.87;;;;;;;;;;5137858;27;20491;-70
2021/05/07 03:07:43;;;;;;;6.53;2.10;;;;;;;;;;5122087;28;20884;-70
2021/05/07 03:10:16;;;;;;;3.27;1.90;;;;;;;;;;5136983;27;20493;-70
2021/05/07 03:12:45;;;;;;;5.20;2.20;;;;;;;;;;5136760;27;20454;-71
2021/05/07 03:15:14;;;;;;;3.63;1.77;;;;;;;;;;5136181;27;20470;-71
2021/05/07 03:17:44;;;;;;;4.53;1.70;;;;;;;;;;5125853;27;20465;-70
2021/05/07 03:20:17;;;;;;;3.70;1.67;;;;;;;;;;5137314;27;20446;-71
2021/05/07 03:22:49;;;;;;;4.03;1.77;;;;;;;;;;5141187;27;21068;-71
2021/05/07 03:25:16;;;;;;;3.60;2.10;;;;;;;;;;5141686;27;20920;-70
2021/05/07 03:28:18;;;;;;;5.93;2.00;;;;;;;;;;5142035;27;20461;-70
2021/05/07 03:30:50;;;;;;;2.77;1.70;;;;;;;;;;5132779;27;21109;-70
2021/05/07 03:33:18;;;;;;;6.33;2.57;;;;;;;;;;5134674;27;20468;-70
2021/05/07 03:35:47;;;;;;;2.77;2.10;;;;;;;;;;5132565;27;20454;-71
2021/05/07 03:38:15;;;;;;;2.50;1.40;;;;;;;;;;5128132;27;20461;-71
2021/05/07 03:40:42;;;;;;;4.50;2.27;;;;;;;;;;5136900;27;20454;-71
2021/05/07 03:43:09;;;;;;;3.10;2.20;;;;;;;;;;5131876;27;20866;-72
2021/05/07 03:45:36;;;;;;;4.60;2.23;;;;;;;;;;5133325;27;20531;-72
2021/05/07 03:48:13;;;;;;;5.50;2.37;;;;;;;;;;5140729;27;20453;-72
2021/05/07 03:50:43;;;;;;;5.00;2.60;;;;;;;;;;5140686;27;20556;-70
2021/05/07 03:53:11;;;;;;;4.40;2.70;;;;;;;;;;5140926;27;21083;-72
2021/05/07 03:55:38;;;;;;;5.90;2.73;;;;;;;;;;5140894;27;20454;-71
2021/05/07 03:58:06;;;;;;;3.13;2.03;;;;;;;;;;5140687;27;20492;-72
2021/05/07 04:01:01;;;;;;;4.10;2.50;;;;;;;;;;5140958;27;20512;-71
2021/05/07 04:03:28;;;;;;;6.70;2.43;;;;;;;;;;5141083;27;20470;-72
2021/05/07 04:05:56;;;;;;;4.13;2.90;;;;;;;;;;5139437;27;20535;-71
2021/05/07 04:08:26;;;;;;;4.00;2.10;;;;;;;;;;5139911;27;20473;-71
2021/05/07 04:10:58;;;;;;;6.03;2.63;;;;;;;;;;5140179;27;20454;-71
2021/05/07 04:16:16;;;;;;;8.47;4.33;;;;;;;;;;5113140;27;20463;-72
2021/05/07 04:18:43;;;;;;;7.13;2.63;;;;;;;;;;5139229;27;20917;-72
2021/05/07 04:21:10;;;;;;;6.77;3.40;;;;;;;;;;5139835;27;20450;-71
2021/05/07 04:23:39;;;;;;;4.97;2.50;;;;;;;;;;5138537;27;20481;-71
2021/05/07 04:26:06;;;;;;;8.07;2.63;;;;;;;;;;5138796;27;20778;-71
2021/05/07 04:28:33;;;;;;;6.10;1.70;;;;;;;;;;5139965;27;20778;-70
2021/05/07 04:31:00;;;;;;;3.10;2.00;;;;;;;;;;5139256;27;20485;-70
2021/05/07 04:33:28;;;;;;;5.60;2.10;;;;;;;;;;5137920;27;20470;-70
2021/05/07 04:35:55;;;;;;;9.13;2.70;;;;;;;;;;5122240;27;20451;-70
2021/05/07 04:38:23;;;;;;;5.20;2.50;;;;;;;;;;5119092;28;20910;-70
2021/05/07 04:40:51;;;;;;;6.73;2.43;;;;;;;;;;5118262;28;20801;-70
2021/05/07 04:43:18;;;;;;;5.63;3.10;;;;;;;;;;5127898;27;20458;-70
2021/05/07 04:45:46;;;;;;;8.83;3.20;;;;;;;;;;5138054;27;20490;-70
2021/05/07 04:48:13;;;;;;;4.90;2.87;;;;;;;;;;5137017;27;20457;-70
2021/05/07 04:50:41;;;;;;;7.17;3.07;;;;;;;;;;5117786;28;20491;-70
2021/05/07 04:53:08;;;;;;;6.20;2.93;;;;;;;;;;5117887;28;20582;-70
2021/05/07 04:55:37;;;;;;;7.97;3.67;;;;;;;;;;5121614;27;20878;-71
2021/05/07 04:58:05;;;;;;;6.07;2.40;;;;;;;;;;5139509;27;20533;-70
2021/05/07 05:00:33;;;;;;;8.70;3.57;;;;;;;;;;5139188;27;20450;-71
2021/05/07 05:03:00;;;;;;;5.67;2.80;;;;;;;;;;5138632;27;20506;-70
2021/05/07 05:05:27;;;;;;;9.80;2.80;;;;;;;;;;5138297;27;20487;-70
2021/05/07 05:07:56;;;;;;;8.67;2.93;;;;;;;;;;5124645;27;20466;-70
2021/05/07 05:10:23;;;;;;;10.70;2.53;;;;;;;;;;5117272;28;20606;-71
2021/05/07 05:12:51;;;;;;;5.30;3.10;;;;;;;;;;5124139;27;20882;-70
2021/05/07 05:15:26;;;;;;;4.73;2.27;;;;;;;;;;5137288;27;20578;-71
2021/05/07 05:17:53;;;;;;;4.60;2.27;;;;;;;;;;5136432;27;20846;-70
2021/05/07 05:20:21;;;;;;;6.30;3.33;;;;;;;;;;5135495;27;20470;-70
2021/05/07 05:22:48;;;;;;;4.80;2.60;;;;;;;;;;5136739;27;20455;-70
2021/05/07 05:25:15;;;;;;;4.23;2.93;;;;;;;;;;5134167;27;20619;-70
2021/05/07 05:27:42;;;;;;;8.00;2.90;;;;;;;;;;5125873;27;20823;-70
2021/05/07 05:30:10;;;;;;;4.17;3.17;;;;;;;;;;5121658;27;20875;-70
2021/05/07 05:32:38;;;;;;;8.93;2.80;;;;;;;;;;5114747;28;20835;-70
2021/05/07 05:35:06;;;;;;;4.33;2.70;;;;;;;;;;5115444;28;20463;-70
2021/05/07 05:37:36;;;;;;;6.23;2.70;;;;;;;;;;5114063;28;20464;-70
2021/05/07 05:40:07;;;;;;;4.50;2.50;;;;;;;;;;5115158;28;20579;-70
2021/05/07 05:42:37;;;;;;;2.47;2.07;;;;;;;;;;5115098;28;20459;-69
2021/05/07 05:45:05;;;;;;;4.90;2.90;;;;;;;;;;5114557;28;20844;-70
2021/05/07 05:47:32;;;;;;;3.27;1.97;;;;;;;;;;5114202;28;20886;-71
2021/05/07 05:50:01;;;;;;;4.57;2.93;;;;;;;;;;5114068;28;20459;-71
2021/05/07 05:52:28;;;;;;;7.57;2.97;;;;;;;;;;5113597;28;20498;-71
2021/05/07 05:54:55;;;;;;;4.63;2.30;;;;;;;;;;5126424;27;20466;-71
2021/05/07 05:57:23;;;;;;;4.70;2.30;;;;;;;;;;5121850;27;20516;-70
2021/05/07 05:59:57;;;;;;;4.27;1.97;;;;;;;;;;5119069;27;20543;-70
2021/05/07 06:02:25;;;;;;;18.33;6.40;;;;;;;;;;5130593;27;20450;-71
2021/05/07 06:04:53;;;;;;;6.03;2.93;;;;;;;;;;5134751;27;20891;-71
2021/05/07 06:07:21;;;;;;;5.40;2.23;;;;;;;;;;5135987;27;21017;-70
2021/05/07 06:09:48;;;;;;;9.93;2.70;;;;;;;;;;5135920;27;20474;-70
2021/05/07 06:12:21;;;;;;;4.40;2.73;;;;;;;;;;5136828;27;20447;-70
2021/05/07 06:14:49;;;;;;;4.60;2.63;;;;;;;;;;5135942;27;20454;-70
2021/05/07 06:17:17;;;;;;;5.33;2.27;;;;;;;;;;5136695;27;20449;-71
2021/05/07 06:19:44;;;;;;;5.43;2.33;;;;;;;;;;5137844;27;20466;-71
2021/05/07 06:22:12;;;;;;;5.27;2.80;;;;;;;;;;5137169;27;20454;-71
2021/05/07 06:24:40;;;;;;;4.07;2.67;;;;;;;;;;5136987;27;20458;-71
2021/05/07 06:27:07;;;;;;;9.97;1.93;;;;;;;;;;5136294;27;20490;-70
2021/05/07 06:29:35;;;;;;;4.90;2.07;;;;;;;;;;5135497;27;20874;-71
2021/05/07 06:32:02;;;;;;;3.50;2.10;;;;;;;;;;5134184;27;20484;-71
2021/05/07 06:34:29;;;;;;;3.33;2.13;;;;;;;;;;5136486;27;20530;-70
2021/05/07 06:36:56;;;;;;;5.27;2.40;;;;;;;;;;5136607;27;20454;-70
2021/05/07 06:39:29;;;;;;;7.43;2.37;;;;;;;;;;5136650;27;20458;-70
2021/05/07 06:41:57;;;;;;;14.93;2.57;;;;;;;;;;5131448;27;20483;-70
2021/05/07 06:44:25;;;;;;;2.80;1.87;;;;;;;;;;5119439;27;20473;-70
2021/05/07 06:46:52;;;;;;;2.80;1.70;;;;;;;;;;5116802;28;20490;-70
2021/05/07 06:49:20;;;;;;;4.80;2.50;;;;;;;;;;5117406;28;20646;-71
2021/05/07 06:51:47;;;;;;;4.93;2.10;;;;;;;;;;5129984;27;20473;-71
2021/05/07 06:54:14;;;;;;;6.50;2.70;;;;;;;;;;5114716;28;20902;-70
2021/05/07 06:56:47;;;;;;;4.73;2.67;;;;;;;;;;5113888;28;20487;-70
2021/05/07 06:59:18;;;;;;;8.93;2.10;;;;;;;;;;5133118;27;20854;-71
2021/05/07 07:01:45;;;;;;;8.80;2.63;;;;;;;;;;5135026;27;20450;-70
2021/05/07 07:04:13;;;;;;;3.60;1.90;;;;;;;;;;5121504;27;20454;-70
2021/05/07 07:06:45;;;;;;;3.50;2.03;;;;;;;;;;5131062;28;20463;-70
2021/05/07 07:09:14;;;;;;;4.13;1.50;;;;;;;;;;5115674;28;20765;-70
2021/05/07 07:11:43;;;;;;;4.10;1.87;;;;;;;;;;5122780;27;20515;-71
2021/05/07 07:14:13;;;;;;;2.70;1.70;;;;;;;;;;5136417;27;20866;-70
2021/05/07 07:16:42;;;;;;;3.00;1.73;;;;;;;;;;5135955;27;20450;-70
2021/05/07 07:19:09;;;;;;;3.50;1.70;;;;;;;;;;5135883;27;20463;-69
2021/05/07 07:21:37;;;;;;;6.20;3.20;;;;;;;;;;5136800;27;20881;-70
2021/05/07 07:24:06;;;;;;;5.30;2.00;;;;;;;;;;5135327;27;20553;-70
2021/05/07 07:26:33;;;;;;;3.70;1.50;;;;;;;;;;5136187;27;20478;-69
2021/05/07 07:29:00;;;;;;;4.30;1.47;;;;;;;;;;5137279;27;20462;-69
2021/05/07 07:31:28;;;;;;;5.00;3.00;;;;;;;;;;5136160;27;20507;-70
2021/05/07 07:33:56;;;;;;;6.50;1.80;;;;;;;;;;5136486;27;20949;-69
2021/05/07 07:36:23;;;;;;;8.27;3.40;;;;;;;;;;5135382;27;20497;-70
2021/05/07 07:38:50;;;;;;;4.80;1.90;;;;;;;;;;5135914;27;20474;-70
2021/05/07 07:41:18;;;;;;;2.73;1.70;;;;;;;;;;5135600;27;20774;-70
2021/05/07 07:43:46;;;;;;;4.00;2.47;;;;;;;;;;5135460;27;20473;-70
2021/05/07 07:46:13;;;;;;;5.30;2.37;;;;;;;;;;5135992;27;20481;-70
2021/05/07 07:48:40;;;;;;;8.90;2.70;;;;;;;;;;5136004;27;20493;-71
2021/05/07 07:51:10;;;;;;;4.93;2.80;;;;;;;;;;5134707;27;20485;-71
2021/05/07 07:53:37;;;;;;;3.77;2.17;;;;;;;;;;5135335;27;20549;-71
2021/05/07 07:56:05;;;;;;;3.93;2.90;;;;;;;;;;5133225;27;20503;-72
2021/05/07 07:58:32;;;;;;;3.30;2.30;;;;;;;;;;5135315;27;20462;-71
2021/05/07 08:00:59;;;;;;;3.70;2.90;;;;;;;;;;5131019;28;20489;-71
2021/05/07 08:03:29;;;;;;;4.40;2.47;;;;;;;;;;5125443;27;20466;-71
2021/05/07 08:06:02;;;;;;;5.63;2.80;;;;;;;;;;5128867;27;20474;-76
2021/05/07 08:08:33;;;;;;;4.83;2.90;;;;;;;;;;5130117;27;20522;-70
2021/05/07 08:11:02;;;;;;;5.10;3.13;;;;;;;;;;5129591;27;20455;-71
2021/05/07 08:13:50;;;;;;;4.63;2.80;;;;;;;;;;5118599;27;20463;-70
2021/05/07 08:16:17;;;;;;;13.87;4.13;;;;;;;;;;5134249;27;20758;-71
2021/05/07 08:18:45;;;;;;;5.10;2.30;;;;;;;;;;5138771;27;20466;-70
2021/05/07 08:21:12;;;;;;;7.70;3.93;;;;;;;;;;5139219;27;20454;-70
2021/05/07 08:23:41;;;;;;;4.10;2.40;;;;;;;;;;5140291;27;20465;-69
2021/05/07 08:26:08;;;;;;;5.77;2.63;;;;;;;;;;5130493;27;20479;-70
2021/05/07 08:28:39;;;;;;;7.83;2.57;;;;;;;;;;5138425;27;20534;-71
2021/05/07 08:31:09;;;;;;;7.13;2.60;;;;;;;;;;5138517;27;20878;-70
2021/05/07 08:33:40;;;;;;;7.03;2.90;;;;;;;;;;5139544;27;20476;-70
2021/05/07 08:36:08;;;;;;;4.13;2.50;;;;;;;;;;5138812;27;20503;-71
2021/05/07 08:38:38;;;;;;;7.33;2.90;;;;;;;;;;5139158;27;20734;-71
2021/05/07 08:41:16;;;;;;;6.67;3.60;;;;;;;;;;5137110;27;20463;-68
2021/05/07 08:43:52;;;;;;;3.80;2.10;;;;;;;;;;5139160;27;20465;-70
2021/05/07 08:46:20;;;;;;;5.73;2.00;;;;;;;;;;5139016;27;20554;-69
2021/05/07 08:48:49;;;;;;;9.73;2.10;;;;;;;;;;5138782;27;20849;-70
2021/05/07 08:51:20;;;;;;;6.83;2.03;;;;;;;;;;5138565;27;20457;-70
2021/05/07 08:53:47;;;;;;;6.97;2.40;;;;;;;;;;5127325;27;20558;-70
2021/05/07 08:56:16;;;;;;;4.67;1.70;;;;;;;;;;5132107;27;20476;-70
2021/05/07 08:58:49;;;;;;;9.33;2.07;;;;;;;;;;5138353;27;20936;-70
2021/05/07 09:01:16;;;;;;;5.30;2.13;;;;;;;;;;5119950;27;20482;-70
2021/05/07 09:03:46;;;;;;;5.27;2.13;;;;;;;;;;5117335;27;20447;-70
2021/05/07 09:06:17;;;;;;;5.07;1.90;;;;;;;;;;5134985;27;20490;-74
2021/05/07 09:08:48;;;;;;;4.87;2.03;;;;;;;;;;5139003;27;20526;-70
2021/05/07 09:11:19;;;;;;;4.60;2.10;;;;;;;;;;5136989;27;20583;-70
2021/05/07 09:14:05;;;;;;;4.40;2.10;;;;;;;;;;5136341;27;20557;-72
2021/05/07 09:16:36;;;;;;;3.80;1.90;;;;;;;;;;5137476;27;20737;-71
2021/05/07 09:19:04;;;;;;;4.10;1.83;;;;;;;;;;5137482;27;20526;-71
2021/05/07 09:21:34;;;;;;;4.70;1.90;;;;;;;;;;5137757;27;20454;-71
2021/05/07 09:24:09;;;;;;;6.47;1.77;;;;;;;;;;5137788;27;20474;-71
2021/05/07 09:26:46;;;;;;;3.23;1.47;;;;;;;;;;5137409;27;20486;-71
2021/05/07 09:29:22;;;;;;;5.40;2.27;;;;;;;;;;5139319;27;20821;-71
2021/05/07 09:32:00;;;;;;;3.67;1.60;;;;;;;;;;5124665;27;20438;-70
2021/05/07 09:34:36;;;;;;;2.90;1.47;;;;;;;;;;5137874;27;20873;-71
2021/05/07 09:37:13;;;;;;;4.30;1.43;;;;;;;;;;5137888;27;20938;-71
2021/05/07 09:39:43;;;;;;;2.70;1.10;;;;;;;;;;5137631;27;21119;-71
2021/05/07 09:42:26;;;;;;;3.60;0.90;;;;;;;;;;5137162;27;20454;-72
2021/05/07 09:44:54;;;;;;;2.67;1.00;;;;;;;;;;5137571;27;20629;-70
2021/05/07 09:47:24;;;;;;;3.03;0.80;;;;;;;;;;5137164;27;20848;-72
2021/05/07 09:50:02;;;;;;;2.80;1.47;;;;;;;;;;5136862;27;20458;-73
2021/05/07 09:52:29;;;;;;;4.23;1.60;;;;;;;;;;5137730;27;20545;-71
2021/05/07 09:55:02;;;;;;;3.23;1.20;;;;;;;;;;5137389;27;20878;-72
2021/05/07 09:57:31;;;;;;;4.20;1.20;;;;;;;;;;5128231;27;20463;-72
2021/05/07 10:00:08;;;;;;;2.57;1.10;;;;;;;;;;5137104;27;20468;-71
2021/05/07 10:02:40;;;;;;;2.77;1.00;;;;;;;;;;5139296;27;20462;-73
2021/05/07 10:05:26;;;;;;;;;;;;;;;;;;;;;
2021/05/07 10:07:58;;;;;;;4.53;1.80;;;;;;;;;;5136536;27;20461;-72
2021/05/07 10:10:41;;;;;;;5.93;1.10;;;;;;;;;;5130570;27;20463;-73
2021/05/07 10:13:12;;;;;;;2.30;1.00;;;;;;;;;;5117227;28;20515;-72
2021/05/07 10:15:44;;;;;;;3.63;1.80;;;;;;;;;;5116929;28;20724;-72
2021/05/07 10:18:14;;;;;;;3.73;1.90;;;;;;;;;;5118483;27;20459;-73
2021/05/07 10:20:42;;;;;;;3.57;1.40;;;;;;;;;;5131348;27;20527;-72
2021/05/07 10:23:17;;;;;;;3.67;1.27;;;;;;;;;;5137148;27;20489;-72
2021/05/07 10:25:58;;;;;;;4.17;1.10;;;;;;;;;;5137095;27;20457;-72
2021/05/07 10:28:30;;;;;;;4.83;1.10;;;;;;;;;;5136405;27;20489;-72
2021/05/07 10:31:04;;;;;;;3.03;1.50;;;;;;;;;;5133971;27;20497;-71
2021/05/07 10:33:39;;;;;;;3.20;1.50;;;;;;;;;;5135869;27;20446;-72
2021/05/07 10:36:20;;;;;;;3.33;1.60;;;;;;;;;;5136999;27;20450;-71
2021/05/07 10:38:48;;;;;;;7.40;1.67;;;;;;;;;;5132927;27;20446;-71
2021/05/07 10:41:19;;;;;;;3.30;1.80;;;;;;;;;;5136806;27;20523;-70
2021/05/07 10:44:01;;;;;;;3.90;1.87;;;;;;;;;;5136175;27;20446;-70
2021/05/07 10:46:29;;;;;;;3.77;1.40;;;;;;;;;;5136066;27;20497;-70
2021/05/07 10:48:59;;;;;;;3.73;1.30;;;;;;;;;;5136057;27;20449;-71
2021/05/07 10:51:29;;;;;;;3.10;1.37;;;;;;;;;;5136714;27;20465;-71
2021/05/07 10:54:05;;;;;;;2.97;1.23;;;;;;;;;;5136187;27;20445;-71
2021/05/07 10:56:35;;;;;;;2.87;1.30;;;;;;;;;;5133935;27;20477;-71
2021/05/07 10:59:13;;;;;;;3.53;1.00;;;;;;;;;;5125791;28;20480;-70
2021/05/07 11:01:57;;;;;;;2.73;0.90;;;;;;;;;;5136340;27;20895;-72
2021/05/07 11:04:26;;;;;;;2.37;1.07;;;;;;;;;;5135641;27;20924;-71
2021/05/07 11:07:04;;;;;;;9.13;3.80;;;;;;;;;;5132888;27;20576;-72
2021/05/07 11:09:32;;;;;;;6.33;1.73;;;;;;;;;;5135292;27;20450;-71
2021/05/07 11:12:04;;;;;;;2.73;1.00;;;;;;;;;;5133742;28;20556;-71
2021/05/07 11:14:37;;;;;;;2.30;0.73;;;;;;;;;;5135935;28;20454;-71
2021/05/07 11:17:06;;;;;;;1.90;0.70;;;;;;;;;;5135927;28;20454;-70
2021/05/07 11:19:34;;;;;;;2.20;0.77;;;;;;;;;;5134706;28;20450;-70
2021/05/07 11:22:03;;;;;;;3.57;1.00;;;;;;;;;;5135230;27;20457;-71
2021/05/07 11:24:32;;;;;;;2.23;0.80;;;;;;;;;;5135809;27;20854;-71
2021/05/07 11:27:03;;;;;;;2.60;0.80;;;;;;;;;;5134680;28;20535;-70
2021/05/07 11:29:31;;;;;;;2.40;0.90;;;;;;;;;;5133932;28;20533;-71
2021/05/07 11:32:13;;;;;;;2.80;0.70;;;;;;;;;;5134407;27;20511;-71
2021/05/07 11:34:42;;;;;;;3.30;1.00;;;;;;;;;;5135090;28;20458;-71
2021/05/07 11:37:09;;;;;;;2.50;1.10;;;;;;;;;;5135100;28;20448;-70
2021/05/07 11:39:37;;;;;;;1.63;0.57;;;;;;;;;;5134938;28;20852;-71
2021/05/07 11:42:05;;;;;;;2.27;0.80;;;;;;;;;;5134393;27;20455;-71
2021/05/07 11:44:33;;;;;;;2.10;0.80;;;;;;;;;;5139499;27;20930;-71
2021/05/07 11:47:06;;;;;;;2.40;1.13;;;;;;;;;;5138325;27;20523;-71
2021/05/07 11:49:35;;;;;;;1.93;0.80;;;;;;;;;;5139355;27;20450;-70
2021/05/07 11:52:03;;;;;;;2.13;0.80;;;;;;;;;;5138620;27;21099;-70
2021/05/07 11:54:42;;;;;;;3.07;0.90;;;;;;;;;;5138159;27;20473;-70
2021/05/07 11:57:09;;;;;;;2.60;1.17;;;;;;;;;;5137232;27;20454;-69
2021/05/07 11:59:40;;;;;;;2.00;0.77;;;;;;;;;;5117659;28;20900;-71
2021/05/07 12:02:11;;;;;;;6.00;2.90;;;;;;;;;;5130925;27;20511;-71
2021/05/07 12:04:45;;;;;;;2.03;0.80;;;;;;;;;;5137278;27;20480;-71
2021/05/07 12:07:25;;;;;;;5.57;1.30;;;;;;;;;;5135621;27;20473;-70
2021/05/07 12:09:53;;;;;;;4.30;1.00;;;;;;;;;;5137073;27;20461;-71
2021/05/07 12:12:20;;;;;;;3.80;1.17;;;;;;;;;;5138009;27;20870;-70
2021/05/07 12:14:51;;;;;;;3.07;1.07;;;;;;;;;;5138102;27;20481;-71
2021/05/07 12:17:19;;;;;;;4.60;1.43;;;;;;;;;;5137792;27;20455;-70
2021/05/07 12:19:58;;;;;;;2.47;0.90;;;;;;;;;;5138319;27;20550;-70
2021/05/07 12:22:26;;;;;;;2.80;1.00;;;;;;;;;;5138806;27;20457;-70
2021/05/07 12:24:53;;;;;;;3.50;1.70;;;;;;;;;;5137316;27;20618;-72
2021/05/07 12:27:27;;;;;;;3.20;0.90;;;;;;;;;;5138247;27;20522;-71
2021/05/07 12:29:55;;;;;;;2.30;1.07;;;;;;;;;;5135937;27;20468;-72
2021/05/07 12:32:23;;;;;;;2.63;1.20;;;;;;;;;;5138027;27;20814;-71
2021/05/07 12:34:59;;;;;;;3.23;1.13;;;;;;;;;;5137182;27;20446;-72
2021/05/07 12:37:38;;;;;;;3.37;1.20;;;;;;;;;;5136592;27;20898;-72
2021/05/07 12:40:06;;;;;;;2.10;1.10;;;;;;;;;;5138300;27;20446;-72
2021/05/07 12:42:39;;;;;;;2.30;1.00;;;;;;;;;;5138219;27;20458;-70
2021/05/07 12:45:11;;;;;;;2.43;1.10;;;;;;;;;;5137472;27;20450;-70
2021/05/07 12:47:39;;;;;;;4.73;1.20;;;;;;;;;;5134212;27;20527;-72
2021/05/07 12:50:15;;;;;;;5.83;1.70;;;;;;;;;;5117036;27;20486;-69
2021/05/07 12:52:44;;;;;;;2.70;0.87;;;;;;;;;;5138374;27;20442;-69
2021/05/07 12:55:13;;;;;;;3.23;1.00;;;;;;;;;;5138049;27;20506;-72
2021/05/07 12:57:43;;;;;;;1.80;0.70;;;;;;;;;;5137755;27;20455;-71
2021/05/07 13:00:14;;;;;;;2.97;1.00;;;;;;;;;;5137770;27;20487;-70
2021/05/07 13:02:48;;;;;;;2.30;1.13;;;;;;;;;;5137416;27;20889;-70
2021/05/07 13:05:20;;;;;;;2.13;0.80;;;;;;;;;;5127793;27;20741;-71
2021/05/07 13:07:49;;;;;;;2.00;1.00;;;;;;;;;;5116635;27;20768;-70
2021/05/07 13:10:16;;;;;;;2.33;0.90;;;;;;;;;;5116512;28;20821;-70
2021/05/07 13:12:44;;;;;;;2.10;0.70;;;;;;;;;;5123336;27;20874;-72
2021/05/07 13:15:14;;;;;;;3.37;0.80;;;;;;;;;;5136845;27;20485;-70
2021/05/07 13:17:51;;;;;;;3.13;1.20;;;;;;;;;;5136052;27;20738;-71
2021/05/07 13:20:21;;;;;;;2.40;1.07;;;;;;;;;;5133661;27;20945;-71
2021/05/07 13:22:50;;;;;;;2.07;1.03;;;;;;;;;;5137639;27;20454;-70
2021/05/07 13:25:20;;;;;;;1.97;0.77;;;;;;;;;;5137727;27;20465;-70
2021/05/07 13:27:48;;;;;;;6.33;1.53;;;;;;;;;;5138049;27;20486;-70
2021/05/07 13:30:17;;;;;;;2.80;1.10;;;;;;;;;;5137676;27;20739;-70
2021/05/07 13:32:45;;;;;;;2.03;0.90;;;;;;;;;;5137196;27;20450;-70
2021/05/07 13:35:17;;;;;;;2.60;1.30;;;;;;;;;;5137404;27;20486;-70
2021/05/07 13:37:49;;;;;;;2.10;0.73;;;;;;;;;;5136559;27;20769;-70
2021/05/07 13:40:19;;;;;;;2.07;0.87;;;;;;;;;;5137503;27;20453;-70
2021/05/07 13:42:47;;;;;;;2.20;0.87;;;;;;;;;;5137781;27;20458;-72
2021/05/07 13:45:15;;;;;;;2.50;0.87;;;;;;;;;;5135765;27;20874;-71
2021/05/07 13:47:46;;;;;;;2.23;0.97;;;;;;;;;;5134583;27;20570;-71
2021/05/07 13:50:14;;;;;;;4.87;0.90;;;;;;;;;;5116661;28;20451;-70
2021/05/07 13:52:49;;;;;;;2.60;0.93;;;;;;;;;;5116113;28;20651;-71
2021/05/07 13:55:21;;;;;;;2.90;0.80;;;;;;;;;;5115612;28;20432;-70
2021/05/07 13:57:49;;;;;;;2.30;0.90;;;;;;;;;;5116680;28;20443;-71
2021/05/07 14:00:17;;;;;;;3.00;1.00;;;;;;;;;;5114953;28;20442;-71
2021/05/07 14:02:46;;;;;;;2.93;1.20;;;;;;;;;;5115672;28;20554;-71
2021/05/07 14:05:13;;;;;;;2.63;0.90;;;;;;;;;;5115644;28;20447;-72
2021/05/07 14:07:41;;;;;;;5.30;0.93;;;;;;;;;;5130480;27;20474;-71
2021/05/07 14:10:12;;;;;;;2.43;1.10;;;;;;;;;;5136393;27;20456;-74
2021/05/07 14:12:39;;;;;;;2.43;0.67;;;;;;;;;;5136457;27;20882;-71
2021/05/07 14:15:09;;;;;;;3.57;1.20;;;;;;;;;;5135466;27;20921;-71
2021/05/07 14:17:36;;;;;;;2.57;1.23;;;;;;;;;;5134309;27;20474;-72
2021/05/07 14:20:04;;;;;;;2.50;0.77;;;;;;;;;;5116228;28;20475;-72
2021/05/07 14:22:49;;;;;;;2.93;1.30;;;;;;;;;;5131254;27;20973;-71
2021/05/07 14:25:21;;;;;;;3.10;0.67;;;;;;;;;;5136315;27;20458;-71
2021/05/07 14:27:48;;;;;;;4.60;0.60;;;;;;;;;;5136790;27;20499;-70
2021/05/07 14:30:17;;;;;;;2.43;0.70;;;;;;;;;;5136067;27;20450;-70
2021/05/07 14:32:54;;;;;;;2.10;1.53;;;;;;;;;;5134915;27;20514;-72
2021/05/07 14:35:30;;;;;;;3.27;1.00;;;;;;;;;;5116069;28;20847;-73
2021/05/07 14:38:03;;;;;;;3.90;1.00;;;;;;;;;;5115925;28;20474;-72
2021/05/07 14:40:32;;;;;;;2.73;0.80;;;;;;;;;;5117835;27;20720;-72
2021/05/07 14:43:02;;;;;;;2.83;0.90;;;;;;;;;;5136525;27;20806;-72
2021/05/07 14:45:29;;;;;;;4.60;1.07;;;;;;;;;;5136622;27;20470;-71
2021/05/07 14:47:57;;;;;;;2.70;1.00;;;;;;;;;;5135223;27;20474;-71
2021/05/07 14:50:27;;;;;;;2.00;0.90;;;;;;;;;;5135660;27;20461;-72
2021/05/07 14:52:58;;;;;;;3.80;1.00;;;;;;;;;;5135874;27;20513;-72
2021/05/07 14:55:26;;;;;;;2.90;0.93;;;;;;;;;;5136388;27;20937;-72
2021/05/07 14:57:54;;;;;;;2.73;1.10;;;;;;;;;;5135467;27;20445;-71
2021/05/07 15:00:24;;;;;;;3.00;1.30;;;;;;;;;;5134033;28;20539;-70
2021/05/07 15:05:59;;;;;;;3.03;1.10;;;;;;;;;;5135219;28;20421;-71